Time,TemperatureF,DewpointF,PressureIn,WindDirection,WindDirectionDegrees,WindSpeedMPH,WindSpeedGustMPH,Humidity,HourlyPrecipIn,Conditions,Clouds,dailyrainin,SoftwareType,DateUTC
2014-02-09 00:00:00,52.6,37.3,30.44,SE,126,1.0,1.0,56,0.00,,,0.00,Wunderground v.1.15,2014-02-09 08:00:00,
2014-02-09 00:05:00,52.3,37.5,30.44,SE,126,1.0,3.0,57,0.00,,,0.00,Wunderground v.1.15,2014-02-09 08:05:00,
2014-02-09 00:15:00,51.8,37.5,30.44,SE,127,0.0,3.0,58,0.00,,,0.00,Wunderground v.1.15,2014-02-09 08:15:00,
2014-02-09 00:25:00,51.5,37.6,30.45,SE,127,0.0,3.0,59,0.00,,,0.00,Wunderground v.1.15,2014-02-09 08:25:00,
2014-02-09 00:30:00,51.8,37.9,30.44,SE,127,0.0,3.0,59,0.00,,,0.00,Wunderground v.1.15,2014-02-09 08:30:00,
2014-02-09 00:35:00,52.5,38.1,30.44,SE,127,0.0,6.0,58,0.00,,,0.00,Wunderground v.1.15,2014-02-09 08:35:00,
2014-02-09 00:45:00,51.8,37.9,30.44,SE,127,0.0,6.0,59,0.00,,,0.00,Wunderground v.1.15,2014-02-09 08:45:00,
2014-02-09 00:50:00,51.3,37.0,30.44,SE,127,0.0,6.0,58,0.00,,,0.00,Wunderground v.1.15,2014-02-09 08:50:00,
2014-02-09 00:55:00,51.1,37.7,30.44,SE,127,0.0,6.0,60,0.00,,,0.00,Wunderground v.1.15,2014-02-09 08:55:00,
2014-02-09 01:00:00,51.5,38.1,30.44,SE,127,0.0,1.0,60,0.00,,,0.00,Wunderground v.1.15,2014-02-09 09:00:00,
2014-02-09 01:10:00,51.3,37.9,30.44,SE,127,0.0,1.0,60,0.00,,,0.00,Wunderground v.1.15,2014-02-09 09:10:00,
2014-02-09 01:15:00,51.7,38.3,30.43,SE,127,0.0,1.0,60,0.00,,,0.00,Wunderground v.1.15,2014-02-09 09:15:00,
2014-02-09 01:20:00,51.7,37.4,30.44,SE,127,0.0,1.0,58,0.00,,,0.00,Wunderground v.1.15,2014-02-09 09:20:00,
2014-02-09 01:30:00,50.4,37.0,30.43,SE,127,0.0,1.0,60,0.00,,,0.00,Wunderground v.1.15,2014-02-09 09:30:00,
2014-02-09 01:35:00,49.4,36.9,30.43,SE,127,0.0,1.0,62,0.00,,,0.00,Wunderground v.1.15,2014-02-09 09:35:00,
2014-02-09 01:45:00,48.6,36.6,30.43,SE,127,0.0,0.0,63,0.00,,,0.00,Wunderground v.1.15,2014-02-09 09:45:00,
2014-02-09 01:50:00,48.8,37.2,30.43,SE,127,0.0,1.0,64,0.00,,,0.00,Wunderground v.1.15,2014-02-09 09:50:00,
2014-02-09 02:00:00,48.4,37.2,30.43,SE,127,0.0,1.0,65,0.00,,,0.00,Wunderground v.1.15,2014-02-09 10:00:00,
2014-02-09 02:05:00,48.7,37.1,30.43,SE,127,0.0,1.0,64,0.00,,,0.00,Wunderground v.1.15,2014-02-09 10:05:00,
2014-02-09 02:15:00,47.5,37.1,30.42,SE,127,0.0,1.0,67,0.00,,,0.00,Wunderground v.1.15,2014-02-09 10:15:00,
2014-02-09 02:25:00,46.9,36.1,30.42,SE,127,0.0,1.0,66,0.00,,,0.00,Wunderground v.1.15,2014-02-09 10:25:00,
2014-02-09 02:30:00,46.8,36.4,30.42,SE,127,1.0,1.0,67,0.00,,,0.00,Wunderground v.1.15,2014-02-09 10:30:00,
2014-02-09 02:35:00,46.5,36.5,30.42,SE,127,1.0,2.0,68,0.00,,,0.00,Wunderground v.1.15,2014-02-09 10:35:00,
2014-02-09 02:45:00,47.1,36.7,30.42,SE,127,1.0,2.0,67,0.00,,,0.00,Wunderground v.1.15,2014-02-09 10:45:00,
2014-02-09 02:50:00,47.3,36.9,30.42,SE,127,1.0,1.0,67,0.00,,,0.00,Wunderground v.1.15,2014-02-09 10:50:00,
2014-02-09 02:55:00,47.7,37.3,30.41,SE,127,1.0,2.0,67,0.00,,,0.00,Wunderground v.1.15,2014-02-09 10:55:00,
2014-02-09 03:05:00,49.2,37.1,30.41,SE,127,0.0,3.0,63,0.00,,,0.00,Wunderground v.1.15,2014-02-09 11:05:00,
2014-02-09 03:10:00,49.2,37.1,30.41,SE,127,0.0,3.0,63,0.00,,,0.00,Wunderground v.1.15,2014-02-09 11:10:00,
2014-02-09 03:15:00,49.6,37.5,30.41,SE,127,0.0,3.0,63,0.00,,,0.00,Wunderground v.1.15,2014-02-09 11:15:00,
2014-02-09 03:25:00,50.1,37.2,30.39,SE,133,0.0,3.0,61,0.00,,,0.00,Wunderground v.1.15,2014-02-09 11:25:00,
2014-02-09 03:35:00,50.7,36.5,30.39,SSE,158,1.0,2.0,58,0.00,,,0.00,Wunderground v.1.15,2014-02-09 11:35:00,
2014-02-09 03:45:00,50.5,36.3,30.40,SSE,158,0.0,2.0,58,0.00,,,0.00,Wunderground v.1.15,2014-02-09 11:45:00,
2014-02-09 03:50:00,50.3,36.5,30.40,SSE,158,0.0,2.0,59,0.00,,,0.00,Wunderground v.1.15,2014-02-09 11:50:00,
2014-02-09 03:55:00,50.2,36.0,30.40,SSE,158,0.0,2.0,58,0.00,,,0.00,Wunderground v.1.15,2014-02-09 11:55:00,
2014-02-09 04:05:00,50.7,36.0,30.39,SSE,160,0.0,3.0,57,0.00,,,0.00,Wunderground v.1.15,2014-02-09 12:05:00,
2014-02-09 04:15:00,51.3,35.7,30.39,SSE,160,0.0,3.0,55,0.00,,,0.00,Wunderground v.1.15,2014-02-09 12:15:00,
2014-02-09 04:20:00,50.2,35.1,30.39,SSE,160,1.0,3.0,56,0.00,,,0.00,Wunderground v.1.15,2014-02-09 12:20:00,
2014-02-09 04:25:00,50.2,35.1,30.39,South,185,1.0,3.0,56,0.00,,,0.00,Wunderground v.1.15,2014-02-09 12:25:00,
2014-02-09 04:35:00,50.8,34.7,30.39,South,185,0.0,3.0,54,0.00,,,0.00,Wunderground v.1.15,2014-02-09 12:35:00,
2014-02-09 04:45:00,51.1,35.0,30.39,ENE,77,0.0,3.0,54,0.00,,,0.00,Wunderground v.1.15,2014-02-09 12:45:00,
2014-02-09 04:50:00,52.1,35.0,30.39,ENE,77,0.0,3.0,52,0.00,,,0.00,Wunderground v.1.15,2014-02-09 12:50:00,
2014-02-09 05:00:00,52.0,35.4,30.40,ENE,77,0.0,2.0,53,0.00,,,0.00,Wunderground v.1.15,2014-02-09 13:00:00,
2014-02-09 05:05:00,51.7,35.1,30.40,ENE,77,0.0,2.0,53,0.00,,,0.00,Wunderground v.1.15,2014-02-09 13:05:00,
2014-02-09 05:15:00,50.6,34.6,30.39,ESE,112,0.0,2.0,54,0.00,,,0.00,Wunderground v.1.15,2014-02-09 13:15:00,
2014-02-09 05:20:00,50.6,34.6,30.39,SE,140,1.0,2.0,54,0.00,,,0.00,Wunderground v.1.15,2014-02-09 13:20:00,
2014-02-09 05:25:00,50.9,34.4,30.39,WNW,296,1.0,2.0,53,0.00,,,0.00,Wunderground v.1.15,2014-02-09 13:25:00,
2014-02-09 05:30:00,51.6,34.5,30.40,West,268,1.0,1.0,52,0.00,,,0.00,Wunderground v.1.15,2014-02-09 13:30:00,
2014-02-09 05:35:00,52.2,34.6,30.39,WNW,298,1.0,3.0,51,0.00,,,0.00,Wunderground v.1.15,2014-02-09 13:35:00,
2014-02-09 05:45:00,52.8,33.6,30.39,WNW,301,1.0,4.0,48,0.00,,,0.00,Wunderground v.1.15,2014-02-09 13:45:00,
2014-02-09 05:50:00,52.7,34.1,30.39,NW,308,0.0,4.0,49,0.00,,,0.00,Wunderground v.1.15,2014-02-09 13:50:00,
2014-02-09 06:00:00,51.7,33.6,30.38,NW,310,0.0,4.0,50,0.00,,,0.00,Wunderground v.1.15,2014-02-09 14:00:00,
2014-02-09 06:05:00,51.3,33.3,30.39,NNW,327,0.0,4.0,50,0.00,,,0.00,Wunderground v.1.15,2014-02-09 14:05:00,
2014-02-09 06:10:00,50.8,33.8,30.39,North,353,1.0,4.0,52,0.00,,,0.00,Wunderground v.1.15,2014-02-09 14:10:00,
2014-02-09 06:20:00,50.8,33.8,30.39,NE,44,1.0,1.0,52,0.00,,,0.00,Wunderground v.1.15,2014-02-09 14:20:00,
2014-02-09 06:30:00,50.8,34.3,30.40,NE,44,0.0,4.0,53,0.00,,,0.00,Wunderground v.1.15,2014-02-09 14:30:00,
2014-02-09 06:35:00,50.9,34.4,30.39,NE,44,0.0,4.0,53,0.00,,,0.00,Wunderground v.1.15,2014-02-09 14:35:00,
2014-02-09 06:45:00,51.0,34.5,30.40,NE,44,0.0,4.0,53,0.00,,,0.00,Wunderground v.1.15,2014-02-09 14:45:00,
2014-02-09 06:50:00,50.1,34.1,30.39,NE,44,0.0,4.0,54,0.00,,,0.00,Wunderground v.1.15,2014-02-09 14:50:00,
2014-02-09 07:00:00,48.4,33.4,30.39,NNE,17,1.0,2.0,56,0.00,,,0.00,Wunderground v.1.15,2014-02-09 15:00:00,
2014-02-09 07:05:00,48.1,33.6,30.40,NNE,17,0.0,2.0,57,0.00,,,0.00,Wunderground v.1.15,2014-02-09 15:05:00,
2014-02-09 07:15:00,48.5,33.5,30.39,North,8,1.0,2.0,56,0.00,,,0.00,Wunderground v.1.15,2014-02-09 15:15:00,
2014-02-09 07:20:00,49.9,33.4,30.39,West,278,1.0,1.0,53,0.00,,,0.00,Wunderground v.1.15,2014-02-09 15:20:00,
2014-02-09 07:30:00,49.7,33.7,30.40,West,278,0.0,2.0,54,0.00,,,0.00,Wunderground v.1.15,2014-02-09 15:30:00,
2014-02-09 07:35:00,50.1,33.6,30.39,West,278,0.0,4.0,53,0.00,,,0.00,Wunderground v.1.15,2014-02-09 15:35:00,
2014-02-09 07:45:00,51.9,33.8,30.39,West,278,0.0,4.0,50,0.00,,,0.00,Wunderground v.1.15,2014-02-09 15:45:00,
2014-02-09 07:50:00,52.7,33.5,30.39,West,278,0.0,4.0,48,0.00,,,0.00,Wunderground v.1.15,2014-02-09 15:50:00,
2014-02-09 07:55:00,53.5,33.7,30.39,West,278,1.0,4.0,47,0.00,,,0.00,Wunderground v.1.15,2014-02-09 15:55:00,
2014-02-09 08:00:00,54.1,33.2,30.39,West,278,1.0,1.0,45,0.00,,,0.00,Wunderground v.1.15,2014-02-09 16:00:00,
2014-02-09 08:10:00,55.6,34.0,30.39,West,278,0.0,3.0,44,0.00,,,0.00,Wunderground v.1.15,2014-02-09 16:10:00,
2014-02-09 08:15:00,56.5,31.8,30.38,NW,321,0.0,3.0,39,0.00,,,0.00,Wunderground v.1.15,2014-02-09 16:15:00,
2014-02-09 08:20:00,57.7,29.5,30.38,NNW,331,2.0,4.0,34,0.00,,,0.00,Wunderground v.1.15,2014-02-09 16:20:00,
2014-02-09 08:30:00,59.5,27.2,30.38,NNW,335,4.0,6.0,29,0.00,,,0.00,Wunderground v.1.15,2014-02-09 16:30:00,
2014-02-09 08:35:00,59.9,27.5,30.38,NNW,340,4.0,8.0,29,0.00,,,0.00,Wunderground v.1.15,2014-02-09 16:35:00,
2014-02-09 08:45:00,61.1,26.8,30.38,NNW,337,4.0,8.0,27,0.00,,,0.00,Wunderground v.1.15,2014-02-09 16:45:00,
2014-02-09 08:50:00,61.2,26.9,30.38,North,352,4.0,4.0,27,0.00,,,0.00,Wunderground v.1.15,2014-02-09 16:50:00,
2014-02-09 09:00:00,62.0,25.7,30.38,NW,326,6.0,13.0,25,0.00,,,0.00,Wunderground v.1.15,2014-02-09 17:00:00,
2014-02-09 09:05:00,62.2,25.9,30.39,NNW,344,4.0,13.0,25,0.00,,,0.00,Wunderground v.1.15,2014-02-09 17:05:00,
2014-02-09 09:15:00,62.2,27.8,30.39,North,356,4.0,13.0,27,0.00,,,0.00,Wunderground v.1.15,2014-02-09 17:15:00,
2014-02-09 09:20:00,62.4,26.1,30.39,NNW,328,5.0,5.0,25,0.00,,,0.00,Wunderground v.1.15,2014-02-09 17:20:00,
2014-02-09 09:30:00,61.3,27.9,30.39,North,1,7.0,13.0,28,0.00,,,0.00,Wunderground v.1.15,2014-02-09 17:30:00,
2014-02-09 09:35:00,61.5,28.1,30.39,NW,323,6.0,13.0,28,0.00,,,0.00,Wunderground v.1.15,2014-02-09 17:35:00,
2014-02-09 09:45:00,61.9,28.4,30.39,North,3,4.0,13.0,28,0.00,,,0.00,Wunderground v.1.15,2014-02-09 17:45:00,
2014-02-09 09:55:00,61.8,28.3,30.39,NNW,340,6.0,13.0,28,0.00,,,0.00,Wunderground v.1.15,2014-02-09 17:55:00,
2014-02-09 10:00:00,62.2,28.7,30.39,NW,318,6.0,13.0,28,0.00,,,0.00,Wunderground v.1.15,2014-02-09 18:00:00,
2014-02-09 10:05:00,62.5,28.0,30.38,NNW,342,5.0,13.0,27,0.00,,,0.00,Wunderground v.1.15,2014-02-09 18:05:00,
2014-02-09 10:15:00,62.6,28.1,30.39,NNW,333,4.0,13.0,27,0.00,,,0.00,Wunderground v.1.15,2014-02-09 18:15:00,
2014-02-09 10:20:00,63.1,28.5,30.39,NNW,327,3.0,13.0,27,0.00,,,0.00,Wunderground v.1.15,2014-02-09 18:20:00,
2014-02-09 10:25:00,63.6,28.1,30.39,NNW,337,2.0,13.0,26,0.00,,,0.00,Wunderground v.1.15,2014-02-09 18:25:00,
2014-02-09 10:35:00,64.1,27.5,30.39,NNW,337,0.0,11.0,25,0.00,,,0.00,Wunderground v.1.15,2014-02-09 18:35:00,
2014-02-09 10:45:00,63.1,34.3,30.38,South,177,2.0,11.0,34,0.00,,,0.00,Wunderground v.1.15,2014-02-09 18:45:00,
2014-02-09 10:50:00,62.5,34.5,30.37,SSE,158,3.0,11.0,35,0.00,,,0.00,Wunderground v.1.15,2014-02-09 18:50:00,
2014-02-09 11:00:00,62.5,34.5,30.37,SSE,150,4.0,4.0,35,0.00,,,0.00,Wunderground v.1.15,2014-02-09 19:00:00,
2014-02-09 11:05:00,62.6,34.5,30.37,SSE,167,4.0,5.0,35,0.00,,,0.00,Wunderground v.1.15,2014-02-09 19:05:00,
2014-02-09 11:10:00,62.7,34.6,30.37,SE,145,4.0,4.0,35,0.00,,,0.00,Wunderground v.1.15,2014-02-09 19:10:00,
2014-02-09 11:15:00,62.7,33.9,30.37,SE,145,3.0,8.0,34,0.00,,,0.00,Wunderground v.1.15,2014-02-09 19:15:00,
2014-02-09 11:25:00,63.9,33.4,30.36,SE,145,0.0,8.0,32,0.00,,,0.00,Wunderground v.1.15,2014-02-09 19:25:00,
2014-02-09 11:30:00,64.1,32.8,30.36,SE,145,0.0,8.0,31,0.00,,,0.00,Wunderground v.1.15,2014-02-09 19:30:00,
2014-02-09 11:35:00,64.3,33.0,30.36,SE,145,0.0,10.0,31,0.00,,,0.00,Wunderground v.1.15,2014-02-09 19:35:00,
2014-02-09 11:45:00,65.5,33.2,30.35,SE,145,0.0,10.0,30,0.00,,,0.00,Wunderground v.1.15,2014-02-09 19:45:00,
2014-02-09 11:50:00,66.6,29.6,30.34,WNW,303,2.0,10.0,25,0.00,,,0.00,Wunderground v.1.15,2014-02-09 19:50:00,
2014-02-09 12:00:00,66.6,28.6,30.34,NNW,345,5.0,5.0,24,0.00,,,0.00,Wunderground v.1.15,2014-02-09 20:00:00,
2014-02-09 12:05:00,67.1,28.0,30.34,NNW,334,3.0,9.0,23,0.00,,,0.00,Wunderground v.1.15,2014-02-09 20:05:00,
2014-02-09 12:10:00,67.2,28.1,30.34,NNE,31,2.0,2.0,23,0.00,,,0.00,Wunderground v.1.15,2014-02-09 20:10:00,
2014-02-09 12:15:00,67.0,27.9,30.34,NW,319,4.0,4.0,23,0.00,,,0.00,Wunderground v.1.15,2014-02-09 20:15:00,
2014-02-09 12:20:00,67.1,28.0,30.34,WNW,285,4.0,4.0,23,0.00,,,0.00,Wunderground v.1.15,2014-02-09 20:20:00,
2014-02-09 12:30:00,66.8,27.8,30.33,NW,307,6.0,9.0,23,0.00,,,0.00,Wunderground v.1.15,2014-02-09 20:30:00,
2014-02-09 12:35:00,67.3,28.2,30.33,NW,313,5.0,14.0,23,0.00,,,0.00,Wunderground v.1.15,2014-02-09 20:35:00,
2014-02-09 12:45:00,67.4,27.2,30.33,NNW,348,3.0,14.0,22,0.00,,,0.00,Wunderground v.1.15,2014-02-09 20:45:00,
2014-02-09 12:50:00,67.0,27.9,30.33,NE,39,2.0,2.0,23,0.00,,,0.00,Wunderground v.1.15,2014-02-09 20:50:00,
2014-02-09 13:00:00,67.4,27.2,30.32,West,273,3.0,10.0,22,0.00,,,0.00,Wunderground v.1.15,2014-02-09 21:00:00,
2014-02-09 13:10:00,68.2,26.7,30.32,SW,217,3.0,10.0,21,0.00,,,0.00,Wunderground v.1.15,2014-02-09 21:10:00,
2014-02-09 13:20:00,67.8,26.4,30.31,NW,304,2.0,2.0,21,0.00,,,0.00,Wunderground v.1.15,2014-02-09 21:20:00,
2014-02-09 13:30:00,68.7,26.0,30.32,NW,314,1.0,1.0,20,0.00,,,0.00,Wunderground v.1.15,2014-02-09 21:30:00,
2014-02-09 13:35:00,68.8,26.1,30.31,NNW,337,1.0,9.0,20,0.00,,,0.00,Wunderground v.1.15,2014-02-09 21:35:00,
2014-02-09 13:40:00,68.6,25.9,30.31,NNW,344,0.0,9.0,20,0.00,,,0.00,Wunderground v.1.15,2014-02-09 21:40:00,
2014-02-09 13:45:00,68.7,26.0,30.30,NNW,344,0.0,9.0,20,0.00,,,0.00,Wunderground v.1.15,2014-02-09 21:45:00,
2014-02-09 13:50:00,68.6,25.9,30.30,NNE,27,1.0,1.0,20,0.00,,,0.00,Wunderground v.1.15,2014-02-09 21:50:00,
2014-02-09 14:00:00,69.6,25.5,30.30,WNW,291,0.0,7.0,19,0.00,,,0.00,Wunderground v.1.15,2014-02-09 22:00:00,
2014-02-09 14:05:00,69.6,25.5,30.30,West,259,1.0,7.0,19,0.00,,,0.00,Wunderground v.1.15,2014-02-09 22:05:00,
2014-02-09 14:15:00,70.2,26.0,30.30,West,271,1.0,4.0,19,0.00,,,0.00,Wunderground v.1.15,2014-02-09 22:15:00,
2014-02-09 14:20:00,70.6,26.3,30.30,WNW,300,2.0,7.0,19,0.00,,,0.00,Wunderground v.1.15,2014-02-09 22:20:00,
2014-02-09 14:30:00,70.8,25.2,30.29,WNW,300,1.0,1.0,18,0.00,,,0.00,Wunderground v.1.15,2014-02-09 22:30:00,
2014-02-09 14:35:00,71.2,25.5,30.29,WNW,300,1.0,7.0,18,0.00,,,0.00,Wunderground v.1.15,2014-02-09 22:35:00,
2014-02-09 14:40:00,71.3,25.6,30.28,WNW,300,1.0,1.0,18,0.00,,,0.00,Wunderground v.1.15,2014-02-09 22:40:00,
2014-02-09 14:45:00,71.8,26.0,30.28,WNW,300,1.0,7.0,18,0.00,,,0.00,Wunderground v.1.15,2014-02-09 22:45:00,
2014-02-09 14:55:00,71.9,24.7,30.28,West,266,1.0,7.0,17,0.00,,,0.00,Wunderground v.1.15,2014-02-09 22:55:00,
2014-02-09 15:00:00,71.9,24.7,30.28,SW,233,1.0,5.0,17,0.00,,,0.00,Wunderground v.1.15,2014-02-09 23:00:00,
2014-02-09 15:10:00,72.2,24.9,30.27,WNW,288,2.0,5.0,17,0.00,,,0.00,Wunderground v.1.15,2014-02-09 23:10:00,
2014-02-09 15:20:00,72.3,23.6,30.27,WNW,299,2.0,2.0,16,0.00,,,0.00,Wunderground v.1.15,2014-02-09 23:20:00,
2014-02-09 15:30:00,72.4,25.1,30.28,WNW,296,2.0,2.0,17,0.00,,,0.00,Wunderground v.1.15,2014-02-09 23:30:00,
2014-02-09 15:35:00,72.0,24.8,30.28,NW,321,3.0,3.0,17,0.00,,,0.00,Wunderground v.1.15,2014-02-09 23:35:00,
2014-02-09 15:40:00,71.1,25.4,30.27,WNW,298,5.0,8.0,18,0.00,,,0.00,Wunderground v.1.15,2014-02-09 23:40:00,
2014-02-09 15:50:00,70.1,23.2,30.27,WNW,285,7.0,7.0,17,0.00,,,0.00,Wunderground v.1.15,2014-02-09 23:50:00,
2014-02-09 16:00:00,70.3,23.4,30.28,WNW,294,4.0,4.0,17,0.00,,,0.00,Wunderground v.1.15,2014-02-10 00:00:00,
2014-02-09 16:05:00,70.1,23.2,30.28,WNW,301,4.0,12.0,17,0.00,,,0.00,Wunderground v.1.15,2014-02-10 00:05:00,
2014-02-09 16:15:00,70.5,23.5,30.28,NW,306,3.0,12.0,17,0.00,,,0.00,Wunderground v.1.15,2014-02-10 00:15:00,
2014-02-09 16:20:00,70.6,23.6,30.28,NW,322,2.0,2.0,17,0.00,,,0.00,Wunderground v.1.15,2014-02-10 00:20:00,
2014-02-09 16:30:00,70.4,23.5,30.28,NNW,341,2.0,12.0,17,0.00,,,0.00,Wunderground v.1.15,2014-02-10 00:30:00,
2014-02-09 16:35:00,69.7,24.3,30.29,North,358,3.0,12.0,18,0.00,,,0.00,Wunderground v.1.15,2014-02-10 00:35:00,
2014-02-09 16:40:00,69.5,24.1,30.29,North,356,2.0,2.0,18,0.00,,,0.00,Wunderground v.1.15,2014-02-10 00:40:00,
2014-02-09 16:50:00,69.0,25.0,30.28,NNW,344,1.0,8.0,19,0.00,,,0.00,Wunderground v.1.15,2014-02-10 00:50:00,
2014-02-09 16:55:00,68.4,25.7,30.28,North,351,2.0,8.0,20,0.00,,,0.00,Wunderground v.1.15,2014-02-10 00:55:00,
2014-02-09 17:00:00,67.7,25.1,30.28,North,351,1.0,5.0,20,0.00,,,0.00,Wunderground v.1.15,2014-02-10 01:00:00,
2014-02-09 17:05:00,67.3,24.8,30.28,North,351,1.0,5.0,20,0.00,,,0.00,Wunderground v.1.15,2014-02-10 01:05:00,
2014-02-09 17:15:00,66.0,26.0,30.28,North,350,0.0,5.0,22,0.00,,,0.00,Wunderground v.1.15,2014-02-10 01:15:00,
2014-02-09 17:20:00,65.3,25.4,30.28,North,349,1.0,1.0,22,0.00,,,0.00,Wunderground v.1.15,2014-02-10 01:20:00,
2014-02-09 17:30:00,64.5,25.8,30.29,North,349,0.0,5.0,23,0.00,,,0.00,Wunderground v.1.15,2014-02-10 01:30:00,
2014-02-09 17:35:00,63.8,25.3,30.29,North,357,1.0,5.0,23,0.00,,,0.00,Wunderground v.1.15,2014-02-10 01:35:00,
2014-02-09 17:45:00,62.9,25.5,30.28,NNW,341,0.0,2.0,24,0.00,,,0.00,Wunderground v.1.15,2014-02-10 01:45:00,
2014-02-09 17:50:00,62.7,22.2,30.29,WNW,288,1.0,3.0,21,0.00,,,0.00,Wunderground v.1.15,2014-02-10 01:50:00,
2014-02-09 17:55:00,62.6,22.1,30.28,WNW,288,2.0,3.0,21,0.00,,,0.00,Wunderground v.1.15,2014-02-10 01:55:00,
2014-02-09 18:00:00,62.5,22.0,30.28,WNW,288,0.0,7.0,21,0.00,,,0.00,Wunderground v.1.15,2014-02-10 02:00:00,
2014-02-09 18:05:00,62.1,23.8,30.29,WNW,288,0.0,7.0,23,0.00,,,0.00,Wunderground v.1.15,2014-02-10 02:05:00,
2014-02-09 18:15:00,61.4,24.2,30.29,WNW,289,1.0,7.0,24,0.00,,,0.00,Wunderground v.1.15,2014-02-10 02:15:00,
2014-02-09 18:20:00,60.9,23.8,30.28,WNW,289,1.0,7.0,24,0.00,,,0.00,Wunderground v.1.15,2014-02-10 02:20:00,
2014-02-09 18:25:00,60.5,24.5,30.29,WNW,298,1.0,7.0,25,0.00,,,0.00,Wunderground v.1.15,2014-02-10 02:25:00,
2014-02-09 18:30:00,60.5,24.5,30.29,NW,306,2.0,2.0,25,0.00,,,0.00,Wunderground v.1.15,2014-02-10 02:30:00,
2014-02-09 18:35:00,60.7,23.7,30.30,NE,42,1.0,6.0,24,0.00,,,0.00,Wunderground v.1.15,2014-02-10 02:35:00,
2014-02-09 18:45:00,61.2,26.0,30.29,NNW,331,2.0,5.0,26,0.00,,,0.00,Wunderground v.1.15,2014-02-10 02:45:00,
2014-02-09 18:50:00,61.6,25.4,30.30,NNW,331,3.0,3.0,25,0.00,,,0.00,Wunderground v.1.15,2014-02-10 02:50:00,
2014-02-09 19:00:00,61.5,24.3,30.30,NNW,331,0.0,6.0,24,0.00,,,0.00,Wunderground v.1.15,2014-02-10 03:00:00,
2014-02-09 19:05:00,61.3,24.2,30.30,NNW,331,0.0,6.0,24,0.00,,,0.00,Wunderground v.1.15,2014-02-10 03:05:00,
2014-02-09 19:15:00,61.3,24.2,30.28,WNW,298,3.0,6.0,24,0.00,,,0.00,Wunderground v.1.15,2014-02-10 03:15:00,
2014-02-09 19:20:00,61.9,25.7,30.28,WNW,293,4.0,4.0,25,0.00,,,0.00,Wunderground v.1.15,2014-02-10 03:20:00,
2014-02-09 19:30:00,62.0,25.7,30.29,North,350,4.0,4.0,25,0.00,,,0.00,Wunderground v.1.15,2014-02-10 03:30:00,
2014-02-09 19:35:00,62.7,26.3,30.29,North,8,4.0,7.0,25,0.00,,,0.00,Wunderground v.1.15,2014-02-10 03:35:00,
2014-02-09 19:45:00,62.5,26.2,30.29,WNW,286,0.0,7.0,25,0.00,,,0.00,Wunderground v.1.15,2014-02-10 03:45:00,
2014-02-09 19:50:00,62.9,25.5,30.29,WNW,285,2.0,7.0,24,0.00,,,0.00,Wunderground v.1.15,2014-02-10 03:50:00,
2014-02-09 20:00:00,62.4,26.1,30.30,WNW,285,1.0,1.0,25,0.00,,,0.00,Wunderground v.1.15,2014-02-10 04:00:00,
2014-02-09 20:05:00,62.0,25.7,30.30,WNW,285,0.0,8.0,25,0.00,,,0.00,Wunderground v.1.15,2014-02-10 04:05:00,
2014-02-09 20:15:00,60.7,26.5,30.30,WNW,291,2.0,8.0,27,0.00,,,0.00,Wunderground v.1.15,2014-02-10 04:15:00,
2014-02-09 20:20:00,60.2,26.1,30.29,WNW,294,3.0,8.0,27,0.00,,,0.00,Wunderground v.1.15,2014-02-10 04:20:00,
2014-02-09 20:25:00,60.4,25.3,30.29,WNW,300,4.0,8.0,26,0.00,,,0.00,Wunderground v.1.15,2014-02-10 04:25:00,
2014-02-09 20:35:00,61.7,26.4,30.29,West,277,4.0,7.0,26,0.00,,,0.00,Wunderground v.1.15,2014-02-10 04:35:00,
2014-02-09 20:40:00,61.7,26.4,30.29,WNW,288,4.0,4.0,26,0.00,,,0.00,Wunderground v.1.15,2014-02-10 04:40:00,
2014-02-09 20:50:00,60.1,26.0,30.29,South,186,2.0,8.0,27,0.00,,,0.00,Wunderground v.1.15,2014-02-10 04:50:00,
2014-02-09 21:00:00,60.1,26.0,30.28,SSW,209,3.0,8.0,27,0.00,,,0.00,Wunderground v.1.15,2014-02-10 05:00:00,
2014-02-09 21:05:00,60.0,25.9,30.30,SE,144,3.0,8.0,27,0.00,,,0.00,Wunderground v.1.15,2014-02-10 05:05:00,
2014-02-09 21:15:00,59.5,25.5,30.29,SE,144,1.0,8.0,27,0.00,,,0.00,Wunderground v.1.15,2014-02-10 05:15:00,
2014-02-09 21:20:00,58.8,25.7,30.29,SE,144,0.0,8.0,28,0.00,,,0.00,Wunderground v.1.15,2014-02-10 05:20:00,
2014-02-09 21:25:00,58.0,25.0,30.29,SE,144,0.0,8.0,28,0.00,,,0.00,Wunderground v.1.15,2014-02-10 05:25:00,
2014-02-09 21:30:00,58.0,25.0,30.30,SE,146,2.0,2.0,28,0.00,,,0.00,Wunderground v.1.15,2014-02-10 05:30:00,
2014-02-09 21:35:00,57.7,25.6,30.29,SE,146,2.0,8.0,29,0.00,,,0.00,Wunderground v.1.15,2014-02-10 05:35:00,
2014-02-09 21:40:00,57.1,25.1,30.29,SE,146,1.0,1.0,29,0.00,,,0.00,Wunderground v.1.15,2014-02-10 05:40:00,
2014-02-09 21:45:00,56.7,25.6,30.29,SE,146,0.0,8.0,30,0.00,,,0.00,Wunderground v.1.15,2014-02-10 05:45:00,
2014-02-09 21:50:00,56.4,25.3,30.29,SE,146,0.0,8.0,30,0.00,,,0.00,Wunderground v.1.15,2014-02-10 05:50:00,
2014-02-09 22:00:00,57.0,27.4,30.30,SSW,192,1.0,7.0,32,0.00,,,0.00,Wunderground v.1.15,2014-02-10 06:00:00,
2014-02-09 22:05:00,56.9,27.3,30.30,South,178,3.0,7.0,32,0.00,,,0.00,Wunderground v.1.15,2014-02-10 06:05:00,
2014-02-09 22:15:00,56.4,28.3,30.30,South,170,4.0,4.0,34,0.00,,,0.00,Wunderground v.1.15,2014-02-10 06:15:00,
2014-02-09 22:20:00,55.9,27.9,30.31,SW,230,3.0,3.0,34,0.00,,,0.00,Wunderground v.1.15,2014-02-10 06:20:00,
2014-02-09 22:25:00,56.2,27.4,30.29,SW,224,2.0,7.0,33,0.00,,,0.00,Wunderground v.1.15,2014-02-10 06:25:00,
2014-02-09 22:30:00,56.0,25.8,30.29,West,268,3.0,3.0,31,0.00,,,0.00,Wunderground v.1.15,2014-02-10 06:30:00,
2014-02-09 22:35:00,55.3,25.9,30.30,West,268,2.0,9.0,32,0.00,,,0.00,Wunderground v.1.15,2014-02-10 06:35:00,
2014-02-09 22:45:00,54.4,25.9,30.31,West,268,0.0,9.0,33,0.00,,,0.00,Wunderground v.1.15,2014-02-10 06:45:00,
2014-02-09 22:50:00,53.8,26.1,30.30,West,268,1.0,9.0,34,0.00,,,0.00,Wunderground v.1.15,2014-02-10 06:50:00,
2014-02-09 22:55:00,53.4,26.4,30.30,West,269,1.0,9.0,35,0.00,,,0.00,Wunderground v.1.15,2014-02-10 06:55:00,
2014-02-09 23:10:00,53.1,26.8,30.30,WNW,298,1.0,7.0,36,0.00,,,0.00,Wunderground v.1.15,2014-02-10 07:10:00,
2014-02-09 23:20:00,53.1,26.8,30.30,NNW,344,3.0,7.0,36,0.00,,,0.00,Wunderground v.1.15,2014-02-10 07:20:00,
2014-02-09 23:25:00,53.1,26.8,30.29,WNW,293,2.0,7.0,36,0.00,,,0.00,Wunderground v.1.15,2014-02-10 07:25:00,
2014-02-09 23:35:00,54.4,27.3,30.29,East,89,2.0,11.0,35,0.00,,,0.00,Wunderground v.1.15,2014-02-10 07:35:00,
2014-02-09 23:45:00,54.5,28.1,30.30,ESE,121,1.0,11.0,36,0.00,,,0.00,Wunderground v.1.15,2014-02-10 07:45:00,
2014-02-09 23:50:00,54.4,28.0,30.30,NNW,333,2.0,11.0,36,0.00,,,0.00,Wunderground v.1.15,2014-02-10 07:50:00,